sensor_id;sensor_type;location;lat;lon;timestamp;pressure;altitude;pressure_sealevel;temperature;humidity
69784;BME280;57054;51.978;4.498;2023-04-01T00:00:25;99109.19;;;8.70;100.00
69784;BME280;57054;51.978;4.498;2023-04-01T00:02:50;99107.47;;;8.69;100.00
69784;BME280;57054;51.978;4.498;2023-04-01T00:05:16;99113.53;;;8.69;100.00
69784;BME280;57054;51.978;4.498;2023-04-01T00:07:42;99111.97;;;8.67;100.00
69784;BME280;57054;51.978;4.498;2023-04-01T00:10:10;99117.09;;;8.68;100.00
69784;BME280;57054;51.978;4.498;2023-04-01T00:12:37;99111.97;;;8.67;100.00
69784;BME280;57054;51.978;4.498;2023-04-01T00:15:04;99128.38;;;8.69;100.00
69784;BME280;57054;51.978;4.498;2023-04-01T00:17:30;99120.44;;;8.70;100.00
69784;BME280;57054;51.978;4.498;2023-04-01T00:19:57;99118.84;;;8.68;100.00
69784;BME280;57054;51.978;4.498;2023-04-01T00:22:24;99113.81;;;8.64;100.00
69784;BME280;57054;51.978;4.498;2023-04-01T00:24:50;99122.56;;;8.63;100.00
69784;BME280;57054;51.978;4.498;2023-04-01T00:27:16;99111.41;;;8.61;100.00
69784;BME280;57054;51.978;4.498;2023-04-01T00:29:42;99121.91;;;8.60;100.00
69784;BME280;57054;51.978;4.498;2023-04-01T00:32:08;99126.31;;;8.59;100.00
69784;BME280;57054;51.978;4.498;2023-04-01T00:34:33;99122.88;;;8.59;100.00
69784;BME280;57054;51.978;4.498;2023-04-01T00:36:59;99124.53;;;8.60;100.00
69784;BME280;57054;51.978;4.498;2023-04-01T00:39:25;99129.75;;;8.60;100.00
69784;BME280;57054;51.978;4.498;2023-04-01T00:41:51;99127.13;;;8.60;100.00
69784;BME280;57054;51.978;4.498;2023-04-01T00:44:23;99137.66;;;8.58;100.00
69784;BME280;57054;51.978;4.498;2023-04-01T00:46:49;99146.25;;;8.60;100.00
69784;BME280;57054;51.978;4.498;2023-04-01T00:49:17;99142.88;;;8.58;100.00
69784;BME280;57054;51.978;4.498;2023-04-01T00:51:45;99142.44;;;8.52;100.00
69784;BME280;57054;51.978;4.498;2023-04-01T00:54:14;99145.03;;;8.52;100.00
69784;BME280;57054;51.978;4.498;2023-04-01T00:56:47;99155.72;;;8.47;100.00
69784;BME280;57054;51.978;4.498;2023-04-01T00:59:21;99151.34;;;8.48;100.00
69784;BME280;57054;51.978;4.498;2023-04-01T01:01:49;99157.34;;;8.50;100.00
69784;BME280;57054;51.978;4.498;2023-04-01T01:04:22;99154.44;;;8.54;100.00
69784;BME280;57054;51.978;4.498;2023-04-01T01:07:08;99160.69;;;8.52;100.00
69784;BME280;57054;51.978;4.498;2023-04-01T01:12:16;99166.00;;;8.50;100.00
69784;BME280;57054;51.978;4.498;2023-04-01T01:15:02;99160.69;;;8.52;100.00
69784;BME280;57054;51.978;4.498;2023-04-01T01:17:41;99157.88;;;8.55;100.00
69784;BME280;57054;51.978;4.498;2023-04-01T01:32:21;99179.69;;;8.54;100.00
69784;BME280;57054;51.978;4.498;2023-04-01T01:35:20;99182.41;;;8.52;100.00
69784;BME280;57054;51.978;4.498;2023-04-01T01:37:59;99173.66;;;8.53;100.00
69784;BME280;57054;51.978;4.498;2023-04-01T01:40:31;99183.13;;;8.54;100.00
69784;BME280;57054;51.978;4.498;2023-04-01T01:43:02;99183.13;;;8.54;100.00
69784;BME280;57054;51.978;4.498;2023-04-01T01:45:30;99181.66;;;8.50;100.00
69784;BME280;57054;51.978;4.498;2023-04-01T01:47:57;99180.63;;;8.53;100.00
69784;BME280;57054;51.978;4.498;2023-04-01T01:50:25;99187.78;;;8.49;100.00
69784;BME280;57054;51.978;4.498;2023-04-01T01:53:00;99189.47;;;8.50;100.00
69784;BME280;57054;51.978;4.498;2023-04-01T01:55:36;99191.41;;;8.47;100.00
69784;BME280;57054;51.978;4.498;2023-04-01T01:58:25;99195.97;;;8.43;100.00
69784;BME280;57054;51.978;4.498;2023-04-01T02:00:56;99200.06;;;8.47;100.00
69784;BME280;57054;51.978;4.498;2023-04-01T02:03:24;99194.84;;;8.47;100.00
69784;BME280;57054;51.978;4.498;2023-04-01T02:05:53;99201.78;;;8.48;100.00
69784;BME280;57054;51.978;4.498;2023-04-01T02:08:25;99207.66;;;8.52;100.00
69784;BME280;57054;51.978;4.498;2023-04-01T02:11:01;99211.94;;;8.53;100.00
69784;BME280;57054;51.978;4.498;2023-04-01T02:13:44;99206.63;;;8.54;100.00
69784;BME280;57054;51.978;4.498;2023-04-01T02:16:36;99216.88;;;8.57;100.00
69784;BME280;57054;51.978;4.498;2023-04-01T02:19:04;99221.28;;;8.57;100.00
69784;BME280;57054;51.978;4.498;2023-04-01T02:21:35;99225.47;;;8.59;100.00
69784;BME280;57054;51.978;4.498;2023-04-01T02:24:06;99226.22;;;8.61;100.00
69784;BME280;57054;51.978;4.498;2023-04-01T02:26:34;99225.53;;;8.58;100.00
69784;BME280;57054;51.978;4.498;2023-04-01T02:29:01;99228.81;;;8.61;100.00
69784;BME280;57054;51.978;4.498;2023-04-01T02:31:29;99232.38;;;8.60;100.00
69784;BME280;57054;51.978;4.498;2023-04-01T02:33:55;99231.44;;;8.61;100.00
69784;BME280;57054;51.978;4.498;2023-04-01T02:36:21;99233.88;;;8.64;100.00
69784;BME280;57054;51.978;4.498;2023-04-01T02:38:47;99240.00;;;8.63;100.00
69784;BME280;57054;51.978;4.498;2023-04-01T02:41:17;99239.34;;;8.60;100.00
69784;BME280;57054;51.978;4.498;2023-04-01T02:43:43;99247.09;;;8.61;100.00
69784;BME280;57054;51.978;4.498;2023-04-01T02:46:08;99243.72;;;8.59;100.00
69784;BME280;57054;51.978;4.498;2023-04-01T02:48:36;99248.13;;;8.59;100.00
69784;BME280;57054;51.978;4.498;2023-04-01T02:51:02;99238.59;;;8.58;100.00
69784;BME280;57054;51.978;4.498;2023-04-01T02:53:27;99248.88;;;8.61;100.00
69784;BME280;57054;51.978;4.498;2023-04-01T02:55:53;99251.56;;;8.59;100.00
69784;BME280;57054;51.978;4.498;2023-04-01T02:58:18;99254.34;;;8.56;100.00
69784;BME280;57054;51.978;4.498;2023-04-01T03:00:44;99258.72;;;8.56;100.00
69784;BME280;57054;51.978;4.498;2023-04-01T03:03:10;99259.75;;;8.53;100.00
69784;BME280;57054;51.978;4.498;2023-04-01T03:05:35;99264.84;;;8.55;100.00
69784;BME280;57054;51.978;4.498;2023-04-01T03:08:01;99277.06;;;8.54;100.00
69784;BME280;57054;51.978;4.498;2023-04-01T03:10:27;99274.47;;;8.54;100.00
69784;BME280;57054;51.978;4.498;2023-04-01T03:12:53;99282.28;;;8.54;100.00
69784;BME280;57054;51.978;4.498;2023-04-01T03:15:18;99284.91;;;8.54;100.00
69784;BME280;57054;51.978;4.498;2023-04-01T03:17:43;99288.25;;;8.56;100.00
69784;BME280;57054;51.978;4.498;2023-04-01T03:20:10;99291.63;;;8.58;100.00
69784;BME280;57054;51.978;4.498;2023-04-01T03:22:36;99295.25;;;8.56;100.00
69784;BME280;57054;51.978;4.498;2023-04-01T03:25:03;99303.84;;;8.58;100.00
69784;BME280;57054;51.978;4.498;2023-04-01T03:27:28;99310.06;;;8.55;100.00
69784;BME280;57054;51.978;4.498;2023-04-01T03:29:53;99310.91;;;8.56;100.00
69784;BME280;57054;51.978;4.498;2023-04-01T03:32:19;99311.00;;;8.54;100.00
69784;BME280;57054;51.978;4.498;2023-04-01T03:34:44;99317.25;;;8.52;100.00
69784;BME280;57054;51.978;4.498;2023-04-01T03:37:10;99325.06;;;8.52;100.00
69784;BME280;57054;51.978;4.498;2023-04-01T03:39:35;99322.47;;;8.52;100.00
69784;BME280;57054;51.978;4.498;2023-04-01T03:42:01;99332.91;;;8.52;100.00
69784;BME280;57054;51.978;4.498;2023-04-01T03:44:30;99333.72;;;8.52;100.00
69784;BME280;57054;51.978;4.498;2023-04-01T03:46:56;99339.84;;;8.51;100.00
69784;BME280;57054;51.978;4.498;2023-04-01T03:49:22;99345.94;;;8.52;100.00
69784;BME280;57054;51.978;4.498;2023-04-01T03:51:47;99351.16;;;8.52;100.00
69784;BME280;57054;51.978;4.498;2023-04-01T03:54:13;99350.41;;;8.50;100.00
69784;BME280;57054;51.978;4.498;2023-04-01T03:56:38;99354.69;;;8.51;100.00
69784;BME280;57054;51.978;4.498;2023-04-01T03:59:05;99348.53;;;8.52;100.00
69784;BME280;57054;51.978;4.498;2023-04-01T04:01:31;99354.53;;;8.54;100.00
69784;BME280;57054;51.978;4.498;2023-04-01T04:03:57;99364.78;;;8.57;100.00
69784;BME280;57054;51.978;4.498;2023-04-01T04:06:23;99361.25;;;8.58;100.00
69784;BME280;57054;51.978;4.498;2023-04-01T04:08:49;99366.47;;;8.58;100.00
69784;BME280;57054;51.978;4.498;2023-04-01T04:11:14;99369.00;;;8.59;100.00
69784;BME280;57054;51.978;4.498;2023-04-01T04:13:41;99385.47;;;8.60;100.00
69784;BME280;57054;51.978;4.498;2023-04-01T04:16:06;99386.41;;;8.59;100.00
69784;BME280;57054;51.978;4.498;2023-04-01T04:18:32;99392.31;;;8.62;100.00
69784;BME280;57054;51.978;4.498;2023-04-01T04:20:58;99390.63;;;8.61;100.00
69784;BME280;57054;51.978;4.498;2023-04-01T04:23:23;99394.06;;;8.62;100.00
69784;BME280;57054;51.978;4.498;2023-04-01T04:28:20;99406.13;;;8.64;100.00
69784;BME280;57054;51.978;4.498;2023-04-01T04:30:46;99406.03;;;8.66;100.00
69784;BME280;57054;51.978;4.498;2023-04-01T04:33:11;99415.59;;;8.65;100.00
69784;BME280;57054;51.978;4.498;2023-04-01T04:35:36;99416.47;;;8.66;100.00
69784;BME280;57054;51.978;4.498;2023-04-01T04:38:02;99418.22;;;8.65;100.00
69784;BME280;57054;51.978;4.498;2023-04-01T04:40:27;99417.22;;;8.68;100.00
69784;BME280;57054;51.978;4.498;2023-04-01T04:42:53;99425.88;;;8.69;100.00
69784;BME280;57054;51.978;4.498;2023-04-01T04:45:18;99431.88;;;8.71;100.00
69784;BME280;57054;51.978;4.498;2023-04-01T04:47:43;99438.03;;;8.70;100.00
69784;BME280;57054;51.978;4.498;2023-04-01T04:50:09;99431.88;;;8.71;100.00
69784;BME280;57054;51.978;4.498;2023-04-01T04:52:35;99441.47;;;8.70;100.00
69784;BME280;57054;51.978;4.498;2023-04-01T04:55:00;99447.44;;;8.72;100.00
69784;BME280;57054;51.978;4.498;2023-04-01T04:57:26;99457.06;;;8.72;100.00
69784;BME280;57054;51.978;4.498;2023-04-01T04:59:51;99462.34;;;8.70;100.00
69784;BME280;57054;51.978;4.498;2023-04-01T05:02:17;99458.97;;;8.68;100.00
69784;BME280;57054;51.978;4.498;2023-04-01T05:04:42;99470.25;;;8.69;100.00
69784;BME280;57054;51.978;4.498;2023-04-01T05:07:07;99469.50;;;8.67;100.00
69784;BME280;57054;51.978;4.498;2023-04-01T05:09:33;99478.31;;;8.64;100.00
69784;BME280;57054;51.978;4.498;2023-04-01T05:11:59;99481.97;;;8.61;100.00
69784;BME280;57054;51.978;4.498;2023-04-01T05:14:24;99493.41;;;8.59;100.00
69784;BME280;57054;51.978;4.498;2023-04-01T05:16:50;99496.09;;;8.57;100.00
69784;BME280;57054;51.978;4.498;2023-04-01T05:19:15;99489.88;;;8.60;100.00
69784;BME280;57054;51.978;4.498;2023-04-01T05:21:41;99495.94;;;8.60;100.00
69784;BME280;57054;51.978;4.498;2023-04-01T05:24:09;99496.84;;;8.59;100.00
69784;BME280;57054;51.978;4.498;2023-04-01T05:26:35;99509.91;;;8.59;100.00
69784;BME280;57054;51.978;4.498;2023-04-01T05:29:02;99511.69;;;8.59;100.00
69784;BME280;57054;51.978;4.498;2023-04-01T05:31:27;99510.75;;;8.60;100.00
69784;BME280;57054;51.978;4.498;2023-04-01T05:33:53;99510.81;;;8.58;100.00
69784;BME280;57054;51.978;4.498;2023-04-01T05:36:21;99521.25;;;8.58;100.00
69784;BME280;57054;51.978;4.498;2023-04-01T05:38:47;99516.97;;;8.57;100.00
69784;BME280;57054;51.978;4.498;2023-04-01T05:41:14;99521.25;;;8.58;100.00
69784;BME280;57054;51.978;4.498;2023-04-01T05:43:40;99529.75;;;8.62;100.00
69784;BME280;57054;51.978;4.498;2023-04-01T05:46:06;99534.97;;;8.62;100.00
69784;BME280;57054;51.978;4.498;2023-04-01T05:48:33;99541.97;;;8.61;100.00
69784;BME280;57054;51.978;4.498;2023-04-01T05:51:00;99546.38;;;8.61;100.00
69784;BME280;57054;51.978;4.498;2023-04-01T05:53:25;99550.75;;;8.60;100.00
69784;BME280;57054;51.978;4.498;2023-04-01T05:55:51;99551.59;;;8.61;100.00
69784;BME280;57054;51.978;4.498;2023-04-01T05:58:16;99554.19;;;8.61;100.00
69784;BME280;57054;51.978;4.498;2023-04-01T06:00:44;99553.34;;;8.60;100.00
69784;BME280;57054;51.978;4.498;2023-04-01T06:03:09;99556.72;;;8.62;100.00
69784;BME280;57054;51.978;4.498;2023-04-01T06:05:40;99571.63;;;8.60;100.00
69784;BME280;57054;51.978;4.498;2023-04-01T06:08:12;99584.00;;;8.57;100.00
69784;BME280;57054;51.978;4.498;2023-04-01T06:13:12;99593.75;;;8.53;100.00
69784;BME280;57054;51.978;4.498;2023-04-01T06:18:44;99598.72;;;8.40;100.00
69784;BME280;57054;51.978;4.498;2023-04-01T06:26:37;99607.78;;;8.33;100.00
69784;BME280;57054;51.978;4.498;2023-04-01T06:31:57;99613.97;;;8.31;100.00
69784;BME280;57054;51.978;4.498;2023-04-01T06:37:10;99630.66;;;8.28;100.00
69784;BME280;57054;51.978;4.498;2023-04-01T06:45:02;99642.00;;;8.27;100.00
69784;BME280;57054;51.978;4.498;2023-04-01T06:52:55;99637.78;;;8.24;100.00
69784;BME280;57054;51.978;4.498;2023-04-01T06:57:52;99642.06;;;8.25;100.00
69784;BME280;57054;51.978;4.498;2023-04-01T07:00:30;99651.66;;;8.25;100.00
69784;BME280;57054;51.978;4.498;2023-04-01T07:03:20;99654.97;;;8.29;100.00
69784;BME280;57054;51.978;4.498;2023-04-01T07:05:47;99654.19;;;8.26;100.00
69784;BME280;57054;51.978;4.498;2023-04-01T07:08:17;99658.47;;;8.27;100.00
69784;BME280;57054;51.978;4.498;2023-04-01T07:10:47;99660.19;;;8.29;100.00
69784;BME280;57054;51.978;4.498;2023-04-01T07:13:29;99663.56;;;8.31;100.00
69784;BME280;57054;51.978;4.498;2023-04-01T07:16:03;99668.00;;;8.29;100.00
69784;BME280;57054;51.978;4.498;2023-04-01T07:18:37;99666.91;;;8.33;100.00
69784;BME280;57054;51.978;4.498;2023-04-01T07:21:04;99672.06;;;8.34;100.00
69784;BME280;57054;51.978;4.498;2023-04-01T07:23:39;99677.97;;;8.38;100.00
69784;BME280;57054;51.978;4.498;2023-04-01T07:26:35;99688.22;;;8.42;100.00
69784;BME280;57054;51.978;4.498;2023-04-01T07:29:00;99689.06;;;8.43;100.00
69784;BME280;57054;51.978;4.498;2023-04-01T07:31:49;99683.00;;;8.42;100.00
69784;BME280;57054;51.978;4.498;2023-04-01T07:34:37;99694.31;;;8.41;100.00
69784;BME280;57054;51.978;4.498;2023-04-01T07:37:38;99699.34;;;8.46;100.00
69784;BME280;57054;51.978;4.498;2023-04-01T07:43:07;99705.16;;;8.51;100.00
69784;BME280;57054;51.978;4.498;2023-04-01T07:48:53;99711.19;;;8.53;100.00
69784;BME280;57054;51.978;4.498;2023-04-01T07:54:03;99723.53;;;8.50;100.00
69784;BME280;57054;51.978;4.498;2023-04-01T08:02:09;99735.56;;;8.52;100.00
69784;BME280;57054;51.978;4.498;2023-04-01T08:04:51;99737.28;;;8.53;100.00
69784;BME280;57054;51.978;4.498;2023-04-01T08:15:26;99758.22;;;8.52;100.00
69784;BME280;57054;51.978;4.498;2023-04-01T08:20:39;99761.66;;;8.52;100.00
69784;BME280;57054;51.978;4.498;2023-04-01T08:23:24;99762.50;;;8.53;100.00
69784;BME280;57054;51.978;4.498;2023-04-01T08:26:02;99770.25;;;8.54;100.00
69784;BME280;57054;51.978;4.498;2023-04-01T08:28:37;99774.56;;;8.55;100.00
69784;BME280;57054;51.978;4.498;2023-04-01T08:33:56;99777.88;;;8.59;100.00
69784;BME280;57054;51.978;4.498;2023-04-01T08:36:31;99781.31;;;8.59;100.00
69784;BME280;57054;51.978;4.498;2023-04-01T08:39:09;99782.22;;;8.58;100.00
69784;BME280;57054;51.978;4.498;2023-04-01T08:52:49;99795.97;;;8.62;100.00
69784;BME280;57054;51.978;4.498;2023-04-01T09:00:57;99805.72;;;8.58;100.00
69784;BME280;57054;51.978;4.498;2023-04-01T09:03:41;99813.41;;;8.61;100.00
69784;BME280;57054;51.978;4.498;2023-04-01T09:06:24;99820.41;;;8.61;100.00
69784;BME280;57054;51.978;4.498;2023-04-01T09:20:42;99837.66;;;8.63;100.00
69784;BME280;57054;51.978;4.498;2023-04-01T09:26:39;99835.28;;;8.59;100.00
69784;BME280;57054;51.978;4.498;2023-04-01T09:29:26;99843.06;;;8.60;100.00
69784;BME280;57054;51.978;4.498;2023-04-01T09:32:22;99852.63;;;8.60;100.00
69784;BME280;57054;51.978;4.498;2023-04-01T09:35:06;99853.50;;;8.60;100.00
69784;BME280;57054;51.978;4.498;2023-04-01T09:40:18;99857.69;;;8.63;100.00
69784;BME280;57054;51.978;4.498;2023-04-01T09:43:03;99859.38;;;8.64;100.00
69784;BME280;57054;51.978;4.498;2023-04-01T10:16:15;99891.97;;;8.74;100.00
69784;BME280;57054;51.978;4.498;2023-04-01T10:27:20;99898.66;;;8.80;100.00
69784;BME280;57054;51.978;4.498;2023-04-01T10:38:28;99911.50;;;8.84;100.00
69784;BME280;57054;51.978;4.498;2023-04-01T10:44:19;99913.25;;;8.84;100.00
69784;BME280;57054;51.978;4.498;2023-04-01T10:47:19;99914.09;;;8.84;100.00
69784;BME280;57054;51.978;4.498;2023-04-01T10:50:13;99917.47;;;8.87;100.00
69784;BME280;57054;51.978;4.498;2023-04-01T10:55:35;99927.78;;;8.90;100.00
69784;BME280;57054;51.978;4.498;2023-04-01T11:00:55;99929.53;;;8.89;100.00
69784;BME280;57054;51.978;4.498;2023-04-01T11:20:13;99943.53;;;8.88;100.00
69784;BME280;57054;51.978;4.498;2023-04-01T11:44:21;99967.72;;;8.92;100.00
69784;BME280;57054;51.978;4.498;2023-04-01T11:49:55;99978.81;;;8.97;100.00
69784;BME280;57054;51.978;4.498;2023-04-01T12:14:48;100018.69;;;9.00;100.00
69784;BME280;57054;51.978;4.498;2023-04-01T12:17:28;100018.69;;;9.00;100.00
69784;BME280;57054;51.978;4.498;2023-04-01T12:20:11;100018.69;;;9.00;100.00
69784;BME280;57054;51.978;4.498;2023-04-01T12:22:50;100024.81;;;8.99;100.00
69784;BME280;57054;51.978;4.498;2023-04-01T12:31:26;100027.34;;;9.01;100.00
69784;BME280;57054;51.978;4.498;2023-04-01T12:47:47;100040.41;;;9.01;100.00
69784;BME280;57054;51.978;4.498;2023-04-01T12:50:39;100048.13;;;9.04;100.00
69784;BME280;57054;51.978;4.498;2023-04-01T12:53:24;100053.16;;;9.07;100.00
69784;BME280;57054;51.978;4.498;2023-04-01T12:55:51;100057.41;;;9.10;100.00
69784;BME280;57054;51.978;4.498;2023-04-01T13:04:49;100066.81;;;9.14;100.00
69784;BME280;57054;51.978;4.498;2023-04-01T13:10:25;100069.34;;;9.15;100.00
69784;BME280;57054;51.978;4.498;2023-04-01T13:15:58;100074.56;;;9.15;100.00
69784;BME280;57054;51.978;4.498;2023-04-01T13:22:03;100088.47;;;9.16;100.00
69784;BME280;57054;51.978;4.498;2023-04-01T13:26:56;100087.41;;;9.20;100.00
69784;BME280;57054;51.978;4.498;2023-04-01T13:29:31;100091.72;;;9.21;100.00
69784;BME280;57054;51.978;4.498;2023-04-01T13:37:23;100105.25;;;9.29;100.00
69784;BME280;57054;51.978;4.498;2023-04-01T13:43:28;100111.25;;;9.31;100.00
69784;BME280;57054;51.978;4.498;2023-04-01T13:52:22;100124.63;;;9.25;100.00
69784;BME280;57054;51.978;4.498;2023-04-01T14:00:57;100121.16;;;9.25;100.00
69784;BME280;57054;51.978;4.498;2023-04-01T14:09:29;100131.63;;;9.25;100.00
69784;BME280;57054;51.978;4.498;2023-04-01T14:12:13;100133.28;;;9.26;100.00
69784;BME280;57054;51.978;4.498;2023-04-01T14:15:05;100141.13;;;9.26;100.00
69784;BME280;57054;51.978;4.498;2023-04-01T14:32:31;100161.13;;;9.27;100.00
69784;BME280;57054;51.978;4.498;2023-04-01T14:48:17;100179.06;;;9.34;100.00
69784;BME280;57054;51.978;4.498;2023-04-01T14:50:50;100186.91;;;9.34;100.00
69784;BME280;57054;51.978;4.498;2023-04-01T14:55:53;100187.59;;;9.38;100.00
69784;BME280;57054;51.978;4.498;2023-04-01T14:58:21;100185.94;;;9.37;100.00
69784;BME280;57054;51.978;4.498;2023-04-01T15:03:25;100192.78;;;9.39;100.00
69784;BME280;57054;51.978;4.498;2023-04-01T15:09:07;100203.94;;;9.43;100.00
69784;BME280;57054;51.978;4.498;2023-04-01T15:14:29;100217.84;;;9.44;100.00
69784;BME280;57054;51.978;4.498;2023-04-01T15:17:16;100219.69;;;9.41;100.00
69784;BME280;57054;51.978;4.498;2023-04-01T15:31:39;100245.09;;;9.38;100.00
69784;BME280;57054;51.978;4.498;2023-04-01T15:37:08;100260.84;;;9.36;100.00
69784;BME280;57054;51.978;4.498;2023-04-01T15:42:46;100259.22;;;9.34;100.00
69784;BME280;57054;51.978;4.498;2023-04-01T15:45:51;100266.13;;;9.35;100.00
69784;BME280;57054;51.978;4.498;2023-04-01T15:54:23;100280.00;;;9.37;100.00
69784;BME280;57054;51.978;4.498;2023-04-01T15:57:15;100286.06;;;9.37;100.00
69784;BME280;57054;51.978;4.498;2023-04-01T15:59:56;100288.69;;;9.37;100.00
69784;BME280;57054;51.978;4.498;2023-04-01T16:02:34;100292.13;;;9.38;100.00
69784;BME280;57054;51.978;4.498;2023-04-01T16:05:21;100289.53;;;9.38;100.00
69784;BME280;57054;51.978;4.498;2023-04-01T16:08:14;100299.13;;;9.37;100.00
69784;BME280;57054;51.978;4.498;2023-04-01T16:13:48;100311.22;;;9.40;100.00
69784;BME280;57054;51.978;4.498;2023-04-01T16:22:07;100329.38;;;9.43;100.00
69784;BME280;57054;51.978;4.498;2023-04-01T16:42:52;100371.47;;;9.37;100.00
69784;BME280;57054;51.978;4.498;2023-04-01T16:45:53;100374.09;;;9.37;100.00
69784;BME280;57054;51.978;4.498;2023-04-01T16:48:52;100382.00;;;9.35;100.00
69784;BME280;57054;51.978;4.498;2023-04-01T16:51:16;100388.19;;;9.33;100.00
69784;BME280;57054;51.978;4.498;2023-04-01T16:53:43;100388.19;;;9.33;100.00
69784;BME280;57054;51.978;4.498;2023-04-01T16:56:23;100407.41;;;9.32;100.00
69784;BME280;57054;51.978;4.498;2023-04-01T16:59:07;100409.25;;;9.30;100.00
69784;BME280;57054;51.978;4.498;2023-04-01T17:01:53;100411.13;;;9.26;100.00
69784;BME280;57054;51.978;4.498;2023-04-01T17:04:27;100407.75;;;9.24;100.00
69784;BME280;57054;51.978;4.498;2023-04-01T17:07:05;100426.88;;;9.25;100.00
69784;BME280;57054;51.978;4.498;2023-04-01T17:12:45;100435.66;;;9.22;100.00
69784;BME280;57054;51.978;4.498;2023-04-01T17:15:21;100432.31;;;9.18;100.00
69784;BME280;57054;51.978;4.498;2023-04-01T17:20:38;100447.16;;;9.18;100.00
69784;BME280;57054;51.978;4.498;2023-04-01T17:23:15;100453.22;;;9.18;100.00
69784;BME280;57054;51.978;4.498;2023-04-01T17:28:53;100465.50;;;9.16;100.00
69784;BME280;57054;51.978;4.498;2023-04-01T17:34:24;100477.78;;;9.14;100.00
69784;BME280;57054;51.978;4.498;2023-04-01T17:39:45;100493.53;;;9.13;100.00
69784;BME280;57054;51.978;4.498;2023-04-01T17:42:39;100502.22;;;9.13;100.00
69784;BME280;57054;51.978;4.498;2023-04-01T17:48:35;100517.19;;;9.10;100.00
69784;BME280;57054;51.978;4.498;2023-04-01T17:51:03;100519.84;;;9.08;100.00
69784;BME280;57054;51.978;4.498;2023-04-01T18:12:43;100561.94;;;9.00;100.00
69784;BME280;57054;51.978;4.498;2023-04-01T18:23:41;100597.88;;;8.94;100.00
69784;BME280;57054;51.978;4.498;2023-04-01T18:26:26;100610.88;;;8.95;100.00
69784;BME280;57054;51.978;4.498;2023-04-01T18:28:57;100613.44;;;8.97;100.00
69784;BME280;57054;51.978;4.498;2023-04-01T18:31:31;100618.00;;;8.92;100.00
69784;BME280;57054;51.978;4.498;2023-04-01T18:34:13;100624.16;;;8.89;100.00
69784;BME280;57054;51.978;4.498;2023-04-01T18:39:36;100637.41;;;8.84;100.00
69784;BME280;57054;51.978;4.498;2023-04-01T18:42:24;100648.78;;;8.82;100.00
69784;BME280;57054;51.978;4.498;2023-04-01T18:45:14;100650.56;;;8.81;100.00
69784;BME280;57054;51.978;4.498;2023-04-01T18:47:47;100657.66;;;8.78;100.00
69784;BME280;57054;51.978;4.498;2023-04-01T18:50:22;100662.88;;;8.78;100.00
69784;BME280;57054;51.978;4.498;2023-04-01T18:52:59;100673.41;;;8.75;100.00
69784;BME280;57054;51.978;4.498;2023-04-01T18:55:40;100680.41;;;8.74;100.00
69784;BME280;57054;51.978;4.498;2023-04-01T19:01:04;100693.47;;;8.74;100.00
69784;BME280;57054;51.978;4.498;2023-04-01T19:06:15;100697.00;;;8.73;100.00
69784;BME280;57054;51.978;4.498;2023-04-01T19:08:44;100712.72;;;8.72;100.00
69784;BME280;57054;51.978;4.498;2023-04-01T19:14:19;100725.06;;;8.67;100.00
69784;BME280;57054;51.978;4.498;2023-04-01T19:17:01;100729.44;;;8.66;100.00
69784;BME280;57054;51.978;4.498;2023-04-01T19:19:46;100733.00;;;8.63;100.00
69784;BME280;57054;51.978;4.498;2023-04-01T19:22:32;100740.09;;;8.60;100.00
69784;BME280;57054;51.978;4.498;2023-04-01T19:25:15;100747.91;;;8.60;100.00
69784;BME280;57054;51.978;4.498;2023-04-01T19:27:51;100753.19;;;8.58;100.00
69784;BME280;57054;51.978;4.498;2023-04-01T19:30:41;100761.00;;;8.58;100.00
69784;BME280;57054;51.978;4.498;2023-04-01T19:36:11;100760.13;;;8.59;100.00
69784;BME280;57054;51.978;4.498;2023-04-01T19:38:38;100775.00;;;8.57;100.00
69784;BME280;57054;51.978;4.498;2023-04-01T19:41:36;100767.25;;;8.54;100.00
69784;BME280;57054;51.978;4.498;2023-04-01T19:44:15;100779.53;;;8.51;100.00
69784;BME280;57054;51.978;4.498;2023-04-01T19:50:08;100794.44;;;8.47;100.00
69784;BME280;57054;51.978;4.498;2023-04-01T19:52:41;100804.13;;;8.43;100.00
69784;BME280;57054;51.978;4.498;2023-04-01T19:55:24;100799.84;;;8.42;100.00
69784;BME280;57054;51.978;4.498;2023-04-01T19:58:09;100797.25;;;8.41;100.00
69784;BME280;57054;51.978;4.498;2023-04-01T20:00:38;100812.94;;;8.39;100.00
69784;BME280;57054;51.978;4.498;2023-04-01T20:03:14;100816.41;;;8.40;100.00
69784;BME280;57054;51.978;4.498;2023-04-01T20:19:26;100855.75;;;8.34;100.00
69784;BME280;57054;51.978;4.498;2023-04-01T20:21:59;100861.06;;;8.31;100.00
69784;BME280;57054;51.978;4.498;2023-04-01T20:24:35;100861.09;;;8.29;100.00
69784;BME280;57054;51.978;4.498;2023-04-01T20:30:12;100870.78;;;8.25;100.00
69784;BME280;57054;51.978;4.498;2023-04-01T20:33:16;100875.16;;;8.25;100.00
69784;BME280;57054;51.978;4.498;2023-04-01T20:36:00;100890.00;;;8.23;100.00
69784;BME280;57054;51.978;4.498;2023-04-01T20:41:53;100906.56;;;8.20;100.00
69784;BME280;57054;51.978;4.498;2023-04-01T20:52:40;100937.97;;;8.19;100.00
69784;BME280;57054;51.978;4.498;2023-04-01T20:58:21;100944.13;;;8.15;100.00
69784;BME280;57054;51.978;4.498;2023-04-01T21:01:08;100939.88;;;8.12;100.00
69784;BME280;57054;51.978;4.498;2023-04-01T21:03:48;100941.84;;;8.04;100.00
69784;BME280;57054;51.978;4.498;2023-04-01T21:06:20;100952.34;;;8.02;100.00
69784;BME280;57054;51.978;4.498;2023-04-01T21:09:02;100959.38;;;7.99;100.00
69784;BME280;57054;51.978;4.498;2023-04-01T21:17:38;100979.53;;;7.94;100.00
69784;BME280;57054;51.978;4.498;2023-04-01T21:25:53;101003.06;;;7.91;100.00
69784;BME280;57054;51.978;4.498;2023-04-01T21:36:42;101025.03;;;7.82;100.00
69784;BME280;57054;51.978;4.498;2023-04-01T21:45:20;101047.06;;;7.70;100.00
69784;BME280;57054;51.978;4.498;2023-04-01T21:50:45;101051.44;;;7.69;100.00
69784;BME280;57054;51.978;4.498;2023-04-01T22:07:17;101090.00;;;7.55;100.00
69784;BME280;57054;51.978;4.498;2023-04-01T22:12:25;101107.53;;;7.48;100.00